Aeroporto :
LOGIN :

Iscrizione | Disclaimer

   EN    FR    IT 

 










Sommario :    VFR   VFR Marginale   IFR   IFR Intensivo   IFR Molto Intensivo
Visibilità : 
Base nubi : 
>= 8 km
>= 3000ft
5 / 8 km
1000 / 3000 ft
1500m / 5 km
500 / 1000 ft
800 / 1500m
200 / 500 ft
< 800m
< 200 ft
Simboli :   Temporali  Nebbia  Neve Forte  Precipitazioni Forti  Vento > 20 kt
SIGMETs :   Varie  Temporali  Ghiacco  Turbolenza  Onda orograficha  Ceneri Vulcaniche






- Altitudine del aeroporto : 1890 ft
- Codice IATA : MEK


GMFM - Bassatine

ULTIMO METAR :
  • 292200Z 18005KT CAVOK 15/08 Q1022 NOSIG

METARs OBSOLETI :
  • 292100Z 18004KT CAVOK 15/08 Q1022 NOSIG
  • 292000Z 16003KT 120V190 CAVOK 16/08 Q1022 NOSIG

TAF TAF GMFM
Valido dal 29 a 18 ore il 31 a 00 ore UTC


291700Z 2918/3024 04004KT CAVOK
BECMG 2920/2924 32010KT



MetMap, La meteo Aeronautica in un colpo d'occhio ! - Copyright ORBIFLY Dicembre 2007 - Disclaimer

ORBIFLY MET'MAP TEAM :

Programmazione e sviluppo : Alexandra Zaïnal
Concezione : Baudouin d'Aumeries
Aiuto per la programmazione : Marc-Olivier Méhu
Supporto tecnico e logistico : Manuel Goepfert
Aiuto per la traduzione : Arnaldo La Scala

Contatto : metmap@orbifly.com




FONTI E CREDITI :

   NOAA